createdAt,value
2023-05-03T00:08:52.380Z,10.24
2023-05-03T00:20:52.833Z,10.26
2023-05-03T00:32:53.325Z,10.22
2023-05-03T00:44:55.208Z,10.26
2023-05-03T00:56:54.222Z,10.19
2023-05-03T01:08:54.661Z,10.11
2023-05-03T01:20:55.122Z,9.90
2023-05-03T01:32:55.606Z,9.66
2023-05-03T01:44:56.035Z,9.53
2023-05-03T01:56:56.499Z,9.43
2023-05-03T02:08:56.959Z,9.23
2023-05-03T02:20:57.384Z,9.29
2023-05-03T02:32:57.897Z,9.39
2023-05-03T02:44:58.303Z,9.44
2023-05-03T02:56:58.734Z,9.56
2023-05-03T03:08:59.173Z,9.58
2023-05-03T03:20:59.666Z,9.52
2023-05-03T03:33:00.154Z,10.04
2023-05-03T03:45:00.549Z,10.04
2023-05-03T03:57:01.044Z,9.91
2023-05-03T04:09:01.468Z,9.93
2023-05-03T04:21:01.907Z,10.21
2023-05-03T04:33:02.425Z,10.36
2023-05-03T04:45:02.832Z,10.59
2023-05-03T04:57:03.306Z,11.00
2023-05-03T05:09:03.780Z,11.33
2023-05-03T05:21:04.175Z,11.40
2023-05-03T05:33:04.692Z,11.50
2023-05-03T05:45:05.081Z,11.74
2023-05-03T05:57:05.517Z,11.85
2023-05-03T06:09:16.629Z,12.15
2023-05-03T06:21:06.437Z,12.27
2023-05-03T06:33:06.959Z,12.30
2023-05-03T06:45:07.327Z,12.29
2023-05-03T06:57:07.819Z,12.27
2023-05-03T07:09:08.246Z,12.33
2023-05-03T07:21:09.459Z,12.36
2023-05-03T07:33:09.191Z,12.69
2023-05-03T07:45:09.627Z,13.36
2023-05-03T07:57:10.064Z,13.45
2023-05-03T08:09:10.525Z,13.49
2023-05-03T08:21:10.969Z,13.57
2023-05-03T08:33:11.495Z,13.90
2023-05-03T08:45:11.889Z,14.36
2023-05-03T08:57:12.376Z,14.16
2023-05-03T09:09:12.870Z,14.97
2023-05-03T09:21:13.257Z,14.90
2023-05-03T09:33:13.688Z,14.55
2023-05-03T09:45:14.173Z,14.72
2023-05-03T09:57:14.629Z,14.65
2023-05-03T10:09:15.081Z,15.34
2023-05-03T10:21:15.965Z,14.28
2023-05-03T10:33:15.984Z,14.70
2023-05-03T10:45:16.413Z,15.60
2023-05-03T10:57:16.871Z,15.61
2023-05-03T11:09:17.327Z,16.20
2023-05-03T11:21:17.976Z,15.77
2023-05-03T11:33:18.209Z,16.54
2023-05-03T11:45:19.792Z,16.27
2023-05-03T11:57:19.185Z,16.03
2023-05-03T12:09:21.243Z,15.78
2023-05-03T12:33:22.577Z,16.44
2023-05-03T12:45:21.752Z,17.00
2023-05-03T12:57:23.661Z,17.08
2023-05-03T13:09:28.314Z,17.51
2023-05-03T13:21:22.333Z,17.26
2023-05-03T13:33:22.832Z,17.57
2023-05-03T13:45:23.283Z,16.84
2023-05-03T13:57:24.680Z,16.26
2023-05-03T14:09:24.148Z,15.55
2023-05-03T14:21:24.641Z,15.75
2023-05-03T14:33:25.083Z,15.40
2023-05-03T14:45:25.532Z,15.20
2023-05-03T14:57:25.966Z,15.26
2023-05-03T15:09:26.442Z,14.90
2023-05-03T15:21:26.921Z,14.55
2023-05-03T15:33:27.395Z,14.76
2023-05-03T15:45:27.778Z,15.03
2023-05-03T15:57:28.896Z,14.80
2023-05-03T16:09:28.720Z,14.71
2023-05-03T16:21:29.141Z,14.68
2023-05-03T16:33:29.595Z,14.74
2023-05-03T16:45:30.107Z,14.40
2023-05-03T16:57:30.518Z,14.28
2023-05-03T17:09:30.951Z,14.27
2023-05-03T17:21:31.434Z,14.24
2023-05-03T17:33:31.868Z,14.18
2023-05-03T17:45:32.345Z,14.01
2023-05-03T17:57:32.790Z,13.80
2023-05-03T18:09:33.255Z,13.61
2023-05-03T18:21:33.733Z,13.52
2023-05-03T18:33:34.199Z,13.05
2023-05-03T18:45:34.587Z,13.23
2023-05-03T18:57:35.043Z,13.04
2023-05-03T19:09:35.515Z,12.89
2023-05-03T19:21:36.002Z,12.91
2023-05-03T19:33:36.439Z,12.90
2023-05-03T19:45:36.851Z,12.71
2023-05-03T19:57:37.364Z,12.67
2023-05-03T20:09:37.792Z,12.61
2023-05-03T20:21:38.222Z,12.42
2023-05-03T20:33:38.648Z,12.41
2023-05-03T20:45:39.175Z,12.37
2023-05-03T20:57:39.587Z,12.35
2023-05-03T21:09:40.054Z,12.26
2023-05-03T21:21:40.477Z,12.11
2023-05-03T21:33:40.941Z,11.96
2023-05-03T21:45:41.416Z,11.94
2023-05-03T21:57:41.877Z,11.74
2023-05-03T22:09:42.281Z,11.57
2023-05-03T22:21:42.740Z,11.47
2023-05-03T22:33:43.217Z,11.29
2023-05-03T22:45:43.692Z,11.16
2023-05-03T22:57:44.110Z,10.79
2023-05-03T23:09:44.547Z,10.77
2023-05-03T23:21:45.054Z,10.45
2023-05-03T23:33:45.471Z,9.91
2023-05-03T23:45:45.968Z,9.91
2023-05-03T23:57:46.373Z,9.06
